Latest Weather Observations for Ernabella/Pukatja

IDD60801

Issued at 2:01 pm CST Saturday 30 May 2015 (issued every 30 minutes, with the page automatically refreshed every 10 minutes)

About weather observations | Map of weather stations | Latest weather observations for NT | Other Formats
Station Details ID: 016097 Name: PUKATJA Lat: -26.26 Lon: 132.18 Height: 703.2 m
Data from the previous 72 hours. | See also: Recent months at Ernabella/Pukatja
Date/Time
CST
Temp
°C
App
Temp
°C
Dew
Point
Rel
Hum
%
Delta-T
°C
Wind Press
QNH
hPa
Press
MSL
hPa
Rain
since 9 am
mm
Dir
 
Spd
km/h
Gust
km/h
Spd
kts
Gust
kts
30/02:00pm 14.0 14.4 13.7 98 0.2 NNW 4 7 2 4 1021.0 - 11.0
30/01:30pm 13.9 14.7 13.6 98 0.2 N 2 6 1 3 1021.4 - 10.6
30/01:00pm 13.9 13.9 13.6 98 0.2 NW 6 9 3 5 1022.3 - 9.8
30/12:30pm 13.9 13.0 13.6 98 0.2 NNW 11 13 6 7 1022.6 - 8.6
30/12:00pm 14.0 13.9 13.8 99 0.1 N 7 11 4 6 1023.3 1021.7 7.8
30/11:30am 13.8 13.6 13.6 99 0.1 NNE 7 9 4 5 1023.3 - 6.4
30/11:00am 13.6 13.0 13.6 100 0.0 N 9 11 5 6 1023.9 - 5.4
30/10:30am 13.6 12.7 13.6 100 0.0 N 11 15 6 8 1024.3 - 3.4
30/10:00am 13.6 13.0 13.6 100 0.0 NNE 9 13 5 7 1024.2 - 1.8
30/09:30am 13.3 13.2 13.3 100 0.0 N 6 11 3 6 1024.3 - 1.6
30/09:00am 13.2 14.1 13.0 99 0.1 CALM 0 6 0 3 1024.6 1023.0 5.4
30/08:30am 13.1 13.6 12.9 99 0.1 ENE 2 6 1 3 1024.2 - 3.4
30/08:00am 13.1 12.7 12.9 99 0.1 NW 7 7 4 4 1024.2 - 2.4
30/07:30am 13.2 13.0 12.9 98 0.2 ENE 6 7 3 4 1023.9 - 0.6
30/07:00am 13.1 12.8 12.8 98 0.2 E 6 7 3 4 1023.4 - 0.6
30/06:30am 13.2 13.7 12.9 98 0.2 SE 2 7 1 4 1023.3 - 0.4
30/06:00am 13.2 12.9 12.7 97 0.3 SE 6 9 3 5 1023.2 1021.6 0.4
30/05:30am 13.2 12.8 12.9 98 0.2 E 7 9 4 5 1022.6 - 0.4
30/05:00am 13.5 14.5 13.2 98 0.2 CALM 0 6 0 3 1022.7 - 0.4
30/04:30am 13.5 13.1 13.0 97 0.3 S 7 11 4 6 1022.5 - 0.4
30/04:00am 13.6 12.2 12.2 91 0.8 SE 11 17 6 9 1022.4 - 0.4
30/03:30am 13.6 13.1 12.5 93 0.6 SW 7 11 4 6 1022.7 - 0.4
30/03:00am 14.2 11.0 11.4 83 1.5 S 19 26 10 14 1022.9 1021.4 0.4
30/02:30am 14.3 12.0 11.6 84 1.5 SSW 15 20 8 11 1023.4 - 0.4
30/02:00am 14.7 12.4 12.9 89 1.0 SSW 17 28 9 15 1023.4 - 0.4
30/01:30am 14.5 13.4 14.2 98 0.2 SW 13 22 7 12 1023.2 - 0.4
30/01:00am 14.5 13.0 14.2 98 0.2 SW 15 20 8 11 1023.2 - 0.2
30/12:30am 15.1 13.8 13.8 92 0.8 S 13 17 7 9 1023.1 - 0.2
30/12:00am 15.4 14.3 13.1 86 1.3 S 11 17 6 9 1022.9 1021.4 0.0
 
Date/Time
CST
Temp
°C
App
Temp
°C
Dew
Point
Rel
Hum
%
Delta-T
°C
Wind Press
QNH
hPa
Press
MSL
hPa
Rain
since 9 am
mm
Dir
 
Spd
km/h
Gust
km/h
Spd
kts
Gust
kts
29/11:30pm 15.2 14.9 13.2 88 1.1 SSE 7 13 4 7 1022.9 - 0.0
29/11:00pm 15.5 14.4 13.0 85 1.4 SSE 11 13 6 7 1023.1 - 0.0
29/10:30pm 15.6 14.9 13.1 85 1.4 S 9 15 5 8 1023.5 - 0.0
29/10:00pm 15.9 14.8 13.0 83 1.7 SSE 11 15 6 8 1023.4 - 0.0
29/09:30pm 16.0 15.1 12.7 81 1.9 SE 9 11 5 6 1023.2 - 0.0
29/09:00pm 16.1 15.6 12.5 79 2.0 SE 7 11 4 6 1023.6 1022.0 0.0
29/08:30pm 16.1 15.1 12.3 78 2.2 SE 9 11 5 6 1023.4 - 0.0
29/08:00pm 16.1 14.7 12.1 77 2.3 SSE 11 15 6 8 1023.2 - 0.0
29/07:30pm 16.3 15.1 12.7 79 2.1 SE 11 15 6 8 1022.9 - 0.0
29/07:00pm 16.4 15.4 12.4 77 2.3 SSE 9 15 5 8 1022.9 - 0.0
29/06:30pm 16.5 15.1 12.3 76 2.4 SSE 11 15 6 8 1022.3 - 0.0
29/06:00pm 16.7 15.5 12.8 78 2.2 SSE 11 15 6 8 1022.0 1020.4 0.0
29/05:30pm 17.4 15.3 12.5 73 2.8 S 15 19 8 10 1022.0 - 0.0
29/05:00pm 17.9 15.6 11.9 68 3.4 S 15 19 8 10 1022.1 - 0.0
29/04:30pm 18.2 16.0 12.0 67 3.5 SSW 15 19 8 10 1021.6 - 0.0
29/04:00pm 18.4 18.9 11.5 64 3.9 CALM 0 0 0 0 1021.6 - 0.0
29/03:30pm 18.5 17.7 11.8 65 3.8 E 7 11 4 6 1021.3 - 0.0
29/03:00pm 18.4 17.8 11.7 65 3.8 E 6 11 3 6 1021.3 1019.8 0.0
29/02:30pm 18.2 17.5 12.0 67 3.5 ENE 7 11 4 6 1021.3 - 0.0
29/02:00pm 18.3 17.8 12.1 67 3.5 ENE 6 9 3 5 1021.6 - 0.0
29/01:30pm 18.1 16.9 11.7 66 3.6 NE 9 13 5 7 1022.1 - 0.0
29/01:00pm 18.0 16.8 11.6 66 3.6 NE 9 13 5 7 1022.4 - 0.0
29/12:30pm 18.2 17.5 12.0 67 3.5 NNE 7 11 4 6 1022.6 - 0.0
29/12:00pm 18.2 16.3 11.7 66 3.7 N 13 17 7 9 1022.9 1021.4 0.0
29/11:30am 17.9 16.2 12.4 70 3.2 N 13 20 7 11 1023.6 - 0.0
29/11:00am 17.8 16.0 12.0 69 3.3 N 13 20 7 11 1023.9 - 0.0
29/10:30am 17.8 17.4 12.5 71 3.0 NNE 6 11 3 6 1024.0 - 0.0
29/10:00am 17.4 17.0 12.3 72 2.9 E 6 9 3 5 1023.9 - 0.0
29/09:30am 16.9 16.6 12.6 76 2.5 SE 6 9 3 5 1023.7 - 0.0
29/09:00am 16.3 15.8 12.5 78 2.2 ESE 7 11 4 6 1023.2 1021.6 0.0
29/08:30am 15.7 15.4 13.2 85 1.4 E 7 9 4 5 1022.8 - 0.0
29/08:00am 15.2 14.5 13.2 88 1.1 ESE 9 11 5 6 1022.3 - 0.0
29/07:30am 14.5 13.9 13.4 93 0.6 E 9 11 5 6 1022.1 - 0.0
29/07:00am 14.4 13.9 13.8 96 0.3 E 9 9 5 5 1021.8 - 0.0
29/06:30am 13.9 13.9 13.6 98 0.2 ENE 6 9 3 5 1021.3 - 0.0
29/06:00am 14.4 13.8 13.6 95 0.5 ENE 9 11 5 6 1021.4 1019.9 0.0
29/05:30am 14.6 13.9 13.3 92 0.7 ENE 9 11 5 6 1021.4 - 0.0
29/05:00am 15.1 14.4 13.3 89 1.0 E 9 11 5 6 1021.4 - 0.0
29/04:30am 14.8 15.8 13.2 90 0.9 CALM 0 0 0 0 1021.4 - 0.0
29/04:00am 15.0 14.8 13.0 88 1.1 E 6 7 3 4 1021.2 - 0.0
29/03:30am 15.2 14.4 12.9 86 1.3 ENE 9 11 5 6 1021.4 - 0.0
29/03:00am 15.7 15.8 12.6 82 1.8 SE 4 11 2 6 1021.7 1020.1 0.0
29/02:30am 15.9 15.4 12.6 81 1.9 ESE 7 11 4 6 1021.8 - 0.0
29/02:00am 15.7 15.8 12.8 83 1.7 E 4 9 2 5 1022.0 - 0.0
29/01:30am 15.5 14.0 13.0 85 1.4 ESE 13 17 7 9 1021.9 - 0.0
29/01:00am 15.9 13.9 12.6 81 1.9 E 15 20 8 11 1021.7 - 0.0
29/12:30am 15.9 13.9 12.6 81 1.9 E 15 22 8 12 1021.8 - 0.0
29/12:00am 15.6 15.4 12.9 84 1.5 ESE 6 7 3 4 1022.3 1020.7 0.0
 
Date/Time
CST
Temp
°C
App
Temp
°C
Dew
Point
Rel
Hum
%
Delta-T
°C
Wind Press
QNH
hPa
Press
MSL
hPa
Rain
since 9 am
mm
Dir
 
Spd
km/h
Gust
km/h
Spd
kts
Gust
kts
28/11:30pm 16.3 15.9 12.5 78 2.2 NNE 6 9 3 5 1022.8 - 0.0
28/11:00pm 16.3 15.8 12.5 78 2.2 E 7 9 4 5 1023.1 - 0.0
28/10:30pm 16.6 15.5 11.9 74 2.7 ESE 9 13 5 7 1023.2 - 0.0
28/10:00pm 16.9 14.9 11.6 71 3.0 ENE 13 17 7 9 1022.3 - 0.0
28/09:30pm 17.1 15.5 11.4 69 3.2 E 11 13 6 7 1022.9 - 0.0
28/09:00pm 17.3 16.1 11.6 69 3.2 E 9 11 5 6 1022.7 1021.2 0.0
28/08:30pm 17.4 16.8 11.7 69 3.2 ENE 6 7 3 4 1022.6 - 0.0
28/08:00pm 17.8 16.8 11.1 65 3.8 NE 7 9 4 5 1022.2 - 0.0
28/07:30pm 18.1 16.8 11.2 64 3.9 ENE 9 11 5 6 1021.8 - 0.0
28/07:00pm 18.5 16.8 11.1 62 4.2 E 11 13 6 7 1021.3 - 0.0
28/06:30pm 18.8 17.1 11.1 61 4.3 E 11 13 6 7 1021.0 - 0.0
28/06:00pm 19.0 17.7 11.1 60 4.4 E 9 11 5 6 1021.0 1019.4 0.0
28/05:30pm 19.5 17.7 11.0 58 4.8 E 11 15 6 8 1020.6 - 0.0
28/05:00pm 19.8 17.6 10.8 56 5.1 ENE 13 17 7 9 1020.4 - 0.0
28/04:30pm 20.3 17.8 11.0 55 5.3 ENE 15 20 8 11 1019.9 - 0.0
28/04:00pm 20.8 19.5 11.2 54 5.5 E 9 17 5 9 1019.8 - 0.0
28/03:30pm 20.9 20.0 11.3 54 5.5 ENE 7 13 4 7 1019.8 - 0.0
28/03:00pm 20.7 20.2 10.8 53 5.6 N 4 7 2 4 1020.1 1018.5 0.0
28/02:30pm 20.0 18.4 11.7 59 4.8 WSW 11 13 6 7 1020.3 - 0.0
28/02:00pm 20.2 18.6 11.4 57 5.0 WSW 11 17 6 9 1020.6 - 0.0
28/01:30pm 20.1 18.0 11.1 56 5.1 WSW 13 17 7 9 1020.6 - 0.0
28/01:00pm 20.0 17.2 11.5 58 4.9 WSW 17 22 9 12 1021.1 - 0.0
28/12:30pm 19.6 16.5 11.6 60 4.6 SW 19 24 10 13 1021.4 - 0.0
28/12:00pm 19.2 15.3 12.0 63 4.1 SW 24 30 13 16 1021.9 1020.3 0.0
28/11:30am 19.1 15.1 11.7 62 4.2 SW 24 32 13 17 1022.4 - 0.0
28/11:00am 18.6 13.4 11.7 64 3.9 SW 30 35 16 19 1022.6 - 0.0
28/10:30am 18.5 15.7 11.3 63 4.1 SW 17 30 9 16 1022.8 - 0.0
28/10:00am 18.0 15.6 11.3 65 3.8 SW 15 22 8 12 1023.1 - 0.0
28/09:30am 17.9 15.9 11.5 66 3.6 SW 13 17 7 9 1022.9 - 0.0
28/09:00am 17.9 16.6 11.2 65 3.8 W 9 11 5 6 1022.6 1021.1 0.0
28/08:30am 17.5 16.2 11.1 66 3.6 WSW 9 15 5 8 1022.6 - 0.0
28/08:00am 17.4 14.2 11.2 67 3.5 SW 19 26 10 14 1022.3 - 0.0
28/07:30am 17.1 15.5 11.6 70 3.1 WSW 11 17 6 9 1022.3 - 0.0
28/07:00am 17.4 15.8 11.7 69 3.2 W 11 17 6 9 1022.2 - 0.0
28/06:30am 17.6 16.2 10.9 65 3.7 W 9 15 5 8 1021.7 - 0.0
28/06:00am 17.6 16.7 10.5 63 3.9 W 6 7 3 4 1021.3 1019.8 0.0
28/05:30am 18.1 15.9 10.7 62 4.1 WNW 13 19 7 10 1021.1 - 0.0
28/05:00am 18.2 16.4 10.8 62 4.1 WNW 11 15 6 8 1020.9 - 0.0
28/04:30am 18.1 16.6 10.7 62 4.1 WNW 9 17 5 9 1020.8 - 0.0
28/04:00am 18.3 16.1 10.7 61 4.2 WNW 13 17 7 9 1020.5 - 0.0
28/03:30am 18.5 16.6 10.6 60 4.4 WNW 11 15 6 8 1020.4 - 0.0
28/03:00am 18.9 16.6 10.5 58 4.7 NW 13 20 7 11 1020.2 1018.6 0.0
28/02:30am 18.9 17.0 10.5 58 4.7 NW 11 17 6 9 1020.1 - 0.0
28/02:00am 18.8 16.3 11.1 61 4.3 N 15 20 8 11 1020.1 - 0.0
28/01:30am 19.0 17.6 10.8 59 4.6 NNE 9 15 5 8 1020.2 - 0.0
28/01:00am 19.0 17.4 10.3 57 4.8 NE 9 15 5 8 1019.8 - 0.0
28/12:30am 19.5 18.4 10.0 54 5.3 N 6 9 3 5 1020.4 - 0.0
28/12:00am 20.1 18.4 9.9 52 5.6 NNE 9 17 5 9 1020.6 1019.0 0.0
 
Date/Time
CST
Temp
°C
App
Temp
°C
Dew
Point
Rel
Hum
%
Delta-T
°C
Wind Press
QNH
hPa
Press
MSL
hPa
Rain
since 9 am
mm
Dir
 
Spd
km/h
Gust
km/h
Spd
kts
Gust
kts
27/11:30pm 21.1 17.4 10.3 50 6.1 N 20 32 11 17 1020.8 - 0.0
27/11:00pm 21.3 18.1 9.9 48 6.4 N 17 24 9 13 1021.1 - 0.0
27/10:30pm 19.2 17.8 11.0 59 4.6 ENE 9 11 5 6 1021.0 - 0.0
27/10:00pm 19.0 18.3 12.0 64 4.0 ENE 7 9 4 5 1021.1 - 0.0
27/09:30pm 19.6 19.9 10.9 57 4.9 CALM 0 0 0 0 1021.4 - 0.0
27/09:00pm 19.6 19.0 11.6 60 4.6 NNE 6 7 3 4 1021.1 1019.6 0.0
27/08:30pm 20.1 18.8 11.3 57 5.0 E 9 9 5 5 1020.9 - 0.0
27/08:00pm 20.2 19.4 11.7 58 4.9 E 7 9 4 5 1020.9 - 0.0
27/07:30pm 20.4 19.7 11.9 58 4.9 ENE 7 9 4 5 1021.0 - 0.0
27/07:00pm 21.5 20.0 9.1 45 6.8 NNE 7 7 4 4 1020.8 - 0.0
27/06:30pm 22.1 20.2 7.5 39 7.8 NE 7 11 4 6 1020.2 - 0.0
27/06:00pm 22.7 20.4 7.3 37 8.2 NE 9 11 5 6 1020.1 1018.5 0.0
27/05:30pm 23.1 20.4 7.2 36 8.5 ENE 11 15 6 8 1019.4 - 0.0
27/05:00pm 23.7 21.0 7.3 35 8.9 NE 11 15 6 8 1019.4 - 0.0
27/04:30pm 23.9 20.8 7.1 34 9.0 NE 13 17 7 9 1019.4 - 0.0
27/04:00pm 24.2 20.7 7.4 34 9.1 ENE 15 22 8 12 1019.5 - 0.0
27/03:30pm 24.7 21.2 7.4 33 9.4 NNE 15 24 8 13 1019.5 - 0.0
27/03:00pm 23.9 19.6 7.1 34 9.0 NNE 19 30 10 16 1019.5 1017.9 0.0
27/02:30pm 25.0 21.1 7.2 32 9.7 NE 17 28 9 15 1019.8 - 0.0

Other Formats:

Comma delimited format used in spreadsheet applications
http://www.bom.gov.au/fwo/IDD60801/IDD60801.94474.axf

JavaScript Object Notation format (JSON) in row-major order
http://www.bom.gov.au/fwo/IDD60801/IDD60801.94474.json